Time;durP1;ratioP1;P1;durP2;ratioP2;P2;SDS_P1;SDS_P2;PMS_P1;PMS_P2;Temp;Humidity;BMP_temperature;BMP_pressure;BME280_temperature;BME280_humidity;BME280_pressure;Samples;Min_cycle;Max_cycle;Signal;HPM_P1;HPM_P2
2023/09/19 00:00:37;;;;;;;7.35;1.30;;;14.70;99.90;;;;;;5044677;28;20055;-67
2023/09/19 00:03:04;;;;;;;;;;;14.70;99.90;;;;;;5045111;28;20048;-67
2023/09/19 00:05:38;;;;;;;6.57;1.60;;;14.60;99.90;;;;;;5045582;28;19939;-67
2023/09/19 00:08:04;;;;;;;5.63;1.25;;;14.60;99.90;;;;;;5061529;28;20523;-67
2023/09/19 00:10:31;;;;;;;4.22;1.83;;;14.60;99.90;;;;;;5042893;28;20040;-67
2023/09/19 00:13:05;;;;;;;6.47;1.30;;;14.60;99.90;;;;;;5046763;28;20419;-67
2023/09/19 00:15:35;;;;;;;11.52;2.03;;;14.60;99.90;;;;;;5030973;28;20033;-70
2023/09/19 00:18:01;;;;;;;9.48;1.70;;;14.50;99.90;;;;;;5044132;28;20047;-70
2023/09/19 00:20:29;;;;;;;5.60;1.02;;;14.50;99.90;;;;;;5028320;28;20038;-67
2023/09/19 00:22:55;;;;;;;6.97;1.70;;;14.50;99.90;;;;;;5068463;28;20044;-72
2023/09/19 00:25:23;;;;;;;5.45;1.10;;;14.50;99.90;;;;;;5029576;28;20454;-69
2023/09/19 00:27:51;;;;;;;4.43;0.90;;;14.40;99.90;;;;;;5051442;28;20101;-68
2023/09/19 00:30:21;;;;;;;5.70;1.10;;;14.40;99.90;;;;;;5031442;28;20040;-68
2023/09/19 00:32:52;;;;;;;5.18;1.17;;;14.50;99.90;;;;;;5045311;28;20032;-68
2023/09/19 00:35:24;;;;;;;6.05;1.02;;;14.40;99.90;;;;;;5057629;28;20047;-68
2023/09/19 00:37:53;;;;;;;5.03;1.63;;;14.40;99.90;;;;;;5063438;28;20040;-67
2023/09/19 00:40:26;;;;;;;4.95;1.30;;;14.40;99.90;;;;;;5048113;28;20103;-69
2023/09/19 00:42:57;;;;;;;8.30;1.13;;;14.40;99.90;;;;;;5043447;28;20515;-68
2023/09/19 00:45:23;;;;;;;7.68;1.17;;;14.40;99.90;;;;;;5043412;28;20071;-68
2023/09/19 00:47:51;;;;;;;4.25;1.48;;;14.30;99.90;;;;;;5048610;28;20045;-68
2023/09/19 00:50:19;;;;;;;4.45;1.10;;;14.40;99.90;;;;;;5047983;28;20063;-69
2023/09/19 00:52:46;;;;;;;6.72;1.30;;;14.30;99.90;;;;;;5031291;28;20045;-68
2023/09/19 00:55:14;;;;;;;3.88;1.45;;;14.30;99.90;;;;;;5043598;28;20143;-69
2023/09/19 00:57:40;;;;;;;5.30;1.23;;;14.30;99.90;;;;;;5064310;28;20184;-68
2023/09/19 01:00:10;;;;;;;8.88;1.20;;;14.30;99.90;;;;;;5045876;28;20070;-68
2023/09/19 01:02:37;;;;;;;6.03;1.02;;;14.20;99.90;;;;;;5066737;28;20052;-68
2023/09/19 01:05:04;;;;;;;4.15;0.88;;;14.20;99.90;;;;;;5053680;28;20500;-68
2023/09/19 01:07:31;;;;;;;5.47;1.67;;;14.20;99.90;;;;;;5067867;28;20045;-68
2023/09/19 01:10:00;;;;;;;3.90;1.00;;;14.20;99.90;;;;;;5046084;28;20067;-68
2023/09/19 01:12:48;;;;;;;7.07;1.23;;;14.20;99.90;;;;;;5050899;28;20032;-68
2023/09/19 01:15:14;;;;;;;;;;;14.10;99.90;;;;;;5055179;28;20043;-68
2023/09/19 01:17:51;;;;;;;5.65;1.00;;;14.10;99.90;;;;;;5050874;28;19916;-69
2023/09/19 01:20:43;;;;;;;6.30;1.20;;;14.10;99.90;;;;;;5054406;28;20544;-68
2023/09/19 01:23:14;;;;;;;6.03;1.30;;;14.10;99.90;;;;;;5048387;28;20040;-68
2023/09/19 01:25:45;;;;;;;7.15;1.27;;;14.00;99.90;;;;;;5064817;28;20064;-68
2023/09/19 01:28:31;;;;;;;5.18;1.13;;;14.00;99.90;;;;;;5049529;28;20039;-68
2023/09/19 01:31:01;;;;;;;6.95;1.08;;;14.00;99.90;;;;;;5047114;28;20361;-68
2023/09/19 01:33:27;;;;;;;3.33;1.38;;;14.00;99.90;;;;;;5064797;28;20112;-68
2023/09/19 01:35:53;;;;;;;7.13;1.42;;;14.00;99.90;;;;;;5047830;28;20122;-68
2023/09/19 01:38:19;;;;;;;9.90;1.30;;;14.00;99.90;;;;;;5045948;28;20520;-69
2023/09/19 01:40:58;;;;;;;7.03;1.15;;;13.90;99.90;;;;;;5048263;28;20104;-68
2023/09/19 01:43:31;;;;;;;7.90;1.08;;;14.00;99.90;;;;;;5042754;28;20048;-68
2023/09/19 01:46:18;;;;;;;6.65;1.10;;;13.90;99.90;;;;;;5052248;28;20055;-69
2023/09/19 01:49:09;;;;;;;5.82;1.15;;;14.00;99.90;;;;;;5046828;28;20051;-68
2023/09/19 01:51:52;;;;;;;4.28;1.35;;;13.90;99.90;;;;;;5053481;28;20076;-68
2023/09/19 01:54:26;;;;;;;4.35;1.00;;;13.90;99.90;;;;;;5033586;28;20032;-68
2023/09/19 01:57:11;;;;;;;2.30;0.85;;;13.90;99.90;;;;;;5052619;28;20040;-68
2023/09/19 01:59:45;;;;;;;5.72;0.98;;;13.90;99.90;;;;;;5055327;28;20048;-68
2023/09/19 02:02:12;;;;;;;3.60;0.85;;;13.90;99.90;;;;;;5048946;28;20040;-68
2023/09/19 02:04:41;;;;;;;6.13;1.45;;;13.90;99.90;;;;;;5054643;28;20459;-68
2023/09/19 02:07:08;;;;;;;11.40;0.85;;;13.90;99.90;;;;;;5053648;28;20161;-68
2023/09/19 02:09:35;;;;;;;5.07;1.58;;;13.90;99.90;;;;;;5031765;28;20055;-68
2023/09/19 02:12:04;;;;;;;4.50;1.10;;;13.90;99.90;;;;;;5049140;28;20048;-68
2023/09/19 02:14:30;;;;;;;4.88;1.10;;;13.90;99.90;;;;;;5054598;28;20028;-68
2023/09/19 02:16:56;;;;;;;6.00;1.13;;;13.90;99.90;;;;;;5068577;28;20040;-68
2023/09/19 02:19:24;;;;;;;7.50;1.48;;;13.90;99.90;;;;;;5050175;28;20043;-68
2023/09/19 02:21:50;;;;;;;5.68;1.30;;;13.90;99.90;;;;;;5056545;28;20047;-68
2023/09/19 02:24:16;;;;;;;4.78;1.17;;;13.90;99.90;;;;;;5048058;28;20033;-67
2023/09/19 02:26:42;;;;;;;5.55;1.35;;;13.90;99.90;;;;;;5049225;28;20068;-67
2023/09/19 02:29:08;;;;;;;3.97;0.98;;;13.90;99.90;;;;;;5052361;28;20101;-68
2023/09/19 02:31:33;;;;;;;5.03;0.85;;;13.90;99.90;;;;;;5058326;28;20075;-67
2023/09/19 02:34:00;;;;;;;5.57;1.00;;;13.90;99.90;;;;;;5047081;28;20438;-67
2023/09/19 02:36:26;;;;;;;3.88;1.20;;;13.90;99.90;;;;;;5029732;28;20090;-67
2023/09/19 02:38:51;;;;;;;7.32;1.08;;;14.00;99.90;;;;;;5048418;28;20109;-68
2023/09/19 02:41:19;;;;;;;8.48;1.50;;;13.90;99.90;;;;;;5045809;28;20039;-67
2023/09/19 02:43:45;;;;;;;7.50;1.20;;;14.00;99.90;;;;;;5040978;28;20047;-68
2023/09/19 02:46:11;;;;;;;9.25;1.15;;;14.00;99.90;;;;;;5065513;28;20076;-68
2023/09/19 02:48:37;;;;;;;3.58;0.80;;;14.00;99.90;;;;;;5050833;28;20041;-68
2023/09/19 02:51:05;;;;;;;3.90;0.80;;;14.00;99.90;;;;;;5046253;28;20040;-67
2023/09/19 02:53:31;;;;;;;5.15;1.20;;;14.00;99.90;;;;;;5044455;28;20466;-68
2023/09/19 02:55:58;;;;;;;5.60;1.08;;;14.00;99.90;;;;;;5049209;28;20083;-67
2023/09/19 02:58:24;;;;;;;3.13;0.93;;;14.00;99.90;;;;;;5047068;28;20385;-68
2023/09/19 03:00:51;;;;;;;10.48;0.90;;;14.10;99.90;;;;;;5068156;28;20507;-68
2023/09/19 03:03:19;;;;;;;6.20;1.20;;;14.00;99.90;;;;;;5030575;28;20043;-68
2023/09/19 03:05:47;;;;;;;5.00;0.90;;;14.00;99.90;;;;;;5048350;28;20454;-68
2023/09/19 03:08:14;;;;;;;4.88;1.25;;;14.00;99.90;;;;;;5067908;28;20067;-67
2023/09/19 03:10:40;;;;;;;4.70;1.20;;;14.00;99.90;;;;;;5064711;28;20488;-68
2023/09/19 03:13:09;;;;;;;8.70;1.40;;;14.00;99.90;;;;;;5049127;28;20045;-67
2023/09/19 03:15:43;;;;;;;6.07;1.42;;;14.10;99.90;;;;;;5044200;28;20411;-67
2023/09/19 03:18:09;;;;;;;8.40;0.98;;;14.00;99.90;;;;;;5048317;28;20425;-67
2023/09/19 03:20:38;;;;;;;5.38;0.98;;;13.90;99.90;;;;;;5064987;28;20036;-67
2023/09/19 03:23:06;;;;;;;4.70;0.95;;;14.00;99.90;;;;;;5065330;28;20086;-68
2023/09/19 03:25:36;;;;;;;8.35;1.23;;;14.10;99.90;;;;;;5062243;28;20045;-67
2023/09/19 03:28:05;;;;;;;7.35;1.20;;;14.10;99.90;;;;;;5065695;28;20047;-67
2023/09/19 03:30:33;;;;;;;5.28;1.00;;;14.10;99.90;;;;;;5046444;28;20040;-68
2023/09/19 03:32:59;;;;;;;6.07;1.48;;;14.10;99.90;;;;;;5046557;28;20515;-68
2023/09/19 03:35:24;;;;;;;3.88;0.90;;;14.00;99.90;;;;;;5041182;28;20040;-67
2023/09/19 03:37:52;;;;;;;2.67;0.70;;;14.10;99.90;;;;;;5061731;28;20040;-67
2023/09/19 03:40:20;;;;;;;4.47;0.80;;;14.10;99.90;;;;;;5065076;28;20451;-67
2023/09/19 03:42:46;;;;;;;8.77;1.40;;;14.10;99.90;;;;;;5051259;28;20068;-67
2023/09/19 03:45:16;;;;;;;8.13;1.83;;;14.10;99.90;;;;;;5029228;28;20114;-68
2023/09/19 03:47:46;;;;;;;9.40;1.23;;;14.10;99.90;;;;;;5045801;28;20086;-67
2023/09/19 03:50:15;;;;;;;5.80;1.55;;;14.20;99.90;;;;;;5052653;28;20191;-68
2023/09/19 03:52:45;;;;;;;5.80;1.02;;;14.10;99.90;;;;;;5039442;28;20098;-68
2023/09/19 03:55:11;;;;;;;5.28;1.33;;;14.10;99.90;;;;;;5051886;28;20040;-68
2023/09/19 03:57:37;;;;;;;5.68;1.10;;;14.10;99.90;;;;;;5045248;28;20037;-67
2023/09/19 04:00:11;;;;;;;6.32;1.10;;;14.10;99.90;;;;;;5030800;28;20175;-67
2023/09/19 04:02:38;;;;;;;2.50;0.93;;;14.10;99.90;;;;;;5042759;28;20085;-67
2023/09/19 04:05:04;;;;;;;3.90;0.82;;;14.10;99.90;;;;;;5046340;28;20050;-67
2023/09/19 04:07:30;;;;;;;5.97;1.02;;;14.10;99.90;;;;;;5046389;28;20037;-67
2023/09/19 04:09:56;;;;;;;7.78;1.17;;;14.10;99.90;;;;;;5054478;28;20112;-67
2023/09/19 04:12:24;;;;;;;3.22;0.77;;;14.10;99.90;;;;;;5034244;28;20029;-68
2023/09/19 04:14:51;;;;;;;3.97;0.90;;;14.20;99.90;;;;;;5042718;28;20044;-67
2023/09/19 04:17:18;;;;;;;7.22;1.10;;;14.10;99.90;;;;;;5039503;28;20082;-68
2023/09/19 04:19:46;;;;;;;3.53;0.90;;;14.10;99.90;;;;;;5057307;28;20071;-68
2023/09/19 04:22:12;;;;;;;5.03;1.25;;;14.10;99.90;;;;;;5037114;28;20450;-67
2023/09/19 04:24:48;;;;;;;4.68;1.50;;;14.20;99.90;;;;;;5035431;28;20104;-69
2023/09/19 04:27:14;;;;;;;3.90;1.20;;;14.20;99.90;;;;;;5056920;28;20173;-74
2023/09/19 04:29:41;;;;;;;4.50;1.17;;;14.20;99.90;;;;;;5045449;28;20832;-71
2023/09/19 04:32:09;;;;;;;5.38;0.95;;;14.20;99.90;;;;;;5046121;28;20101;-71
2023/09/19 04:34:35;;;;;;;3.47;0.65;;;14.20;99.90;;;;;;5042142;28;20032;-70
2023/09/19 04:37:02;;;;;;;3.90;1.00;;;14.30;99.90;;;;;;5042815;28;20085;-71
2023/09/19 04:39:28;;;;;;;5.88;0.88;;;14.30;99.90;;;;;;5044451;28;20048;-70
2023/09/19 04:41:54;;;;;;;5.45;0.85;;;14.20;99.90;;;;;;5044935;28;20069;-71
2023/09/19 04:44:23;;;;;;;8.77;1.20;;;14.30;99.90;;;;;;5039712;28;20044;-70
2023/09/19 04:46:51;;;;;;;6.10;0.80;;;14.30;99.90;;;;;;5029424;28;20044;-69
2023/09/19 04:49:18;;;;;;;7.57;1.27;;;14.30;99.90;;;;;;5043924;28;20040;-69
2023/09/19 04:51:43;;;;;;;5.22;1.02;;;14.30;99.90;;;;;;5044335;28;20139;-69
2023/09/19 04:54:09;;;;;;;6.40;1.60;;;14.30;99.90;;;;;;5069151;28;20623;-70
2023/09/19 04:56:35;;;;;;;8.65;1.15;;;14.30;99.90;;;;;;5043113;28;20037;-71
2023/09/19 04:59:01;;;;;;;8.23;1.13;;;14.40;99.90;;;;;;5045627;28;20063;-69
2023/09/19 05:01:29;;;;;;;6.13;0.95;;;14.30;99.90;;;;;;5055444;28;20052;-70
2023/09/19 05:03:58;;;;;;;6.80;1.20;;;14.40;99.90;;;;;;5073833;28;20047;-68
2023/09/19 05:06:26;;;;;;;6.68;1.80;;;14.40;99.90;;;;;;5042035;28;20496;-69
2023/09/19 05:08:52;;;;;;;8.95;1.27;;;14.40;99.90;;;;;;5052310;28;20064;-71
2023/09/19 05:11:22;;;;;;;5.28;1.38;;;14.40;99.90;;;;;;5058402;28;20044;-73
2023/09/19 05:13:50;;;;;;;7.88;1.00;;;14.40;99.90;;;;;;5046449;28;20048;-67
2023/09/19 05:16:19;;;;;;;5.45;1.00;;;14.50;99.90;;;;;;5033340;28;20036;-69
2023/09/19 05:18:48;;;;;;;6.35;1.05;;;14.40;99.90;;;;;;5044122;28;20067;-69
2023/09/19 05:21:17;;;;;;;4.00;1.00;;;14.50;99.90;;;;;;5030807;28;20514;-71
2023/09/19 05:23:42;;;;;;;3.67;0.90;;;14.50;99.90;;;;;;5044543;28;20555;-69
2023/09/19 05:26:08;;;;;;;11.43;1.48;;;14.50;99.90;;;;;;5062863;28;20044;-73
2023/09/19 05:28:37;;;;;;;11.00;1.35;;;14.50;99.90;;;;;;5041435;28;20048;-70
2023/09/19 05:31:03;;;;;;;9.32;1.38;;;14.60;99.90;;;;;;5048024;28;20389;-72
2023/09/19 05:33:30;;;;;;;7.75;1.10;;;14.50;99.90;;;;;;5045853;28;20051;-72
2023/09/19 05:35:58;;;;;;;9.38;1.27;;;14.60;99.90;;;;;;5063179;28;20063;-68
2023/09/19 05:38:27;;;;;;;6.10;1.30;;;14.60;99.90;;;;;;5044588;28;20037;-69
2023/09/19 05:40:53;;;;;;;10.38;1.42;;;14.60;99.90;;;;;;5054994;28;20448;-68
2023/09/19 05:43:19;;;;;;;5.43;1.17;;;14.60;99.90;;;;;;5057162;28;20036;-68
2023/09/19 05:45:51;;;;;;;6.10;1.40;;;14.60;99.90;;;;;;5041471;28;20297;-69
2023/09/19 05:48:17;;;;;;;4.65;1.27;;;14.60;99.90;;;;;;5056356;28;20539;-69
2023/09/19 05:50:46;;;;;;;5.28;1.02;;;14.60;99.90;;;;;;5047139;28;20040;-70
2023/09/19 05:53:14;;;;;;;8.43;1.27;;;14.70;99.90;;;;;;5046953;28;20037;-70
2023/09/19 05:55:43;;;;;;;5.60;1.00;;;14.70;99.90;;;;;;5051606;28;20111;-69
2023/09/19 05:58:17;;;;;;;9.68;1.52;;;14.70;99.90;;;;;;5041943;28;20169;-69
2023/09/19 06:00:44;;;;;;;5.80;1.10;;;14.70;99.90;;;;;;5060835;28;20048;-70
2023/09/19 06:03:11;;;;;;;4.60;0.80;;;14.70;99.90;;;;;;5049897;28;20052;-70
2023/09/19 06:05:40;;;;;;;4.82;1.30;;;14.80;99.90;;;;;;5045897;28;20048;-70
2023/09/19 06:08:07;;;;;;;6.07;1.20;;;14.70;99.90;;;;;;5028284;28;20040;-69
2023/09/19 06:10:34;;;;;;;8.80;1.67;;;14.80;99.90;;;;;;5057758;28;20058;-70
2023/09/19 06:13:02;;;;;;;4.78;1.45;;;14.70;99.90;;;;;;5050810;28;20086;-70
2023/09/19 06:15:36;;;;;;;5.38;0.85;;;14.80;99.90;;;;;;5043990;28;20067;-69
2023/09/19 06:18:05;;;;;;;5.80;1.10;;;14.80;99.90;;;;;;5042148;28;20033;-70
2023/09/19 06:20:36;;;;;;;5.50;0.98;;;14.80;99.90;;;;;;5035812;28;20040;-70
2023/09/19 06:23:03;;;;;;;11.20;1.05;;;14.90;99.90;;;;;;5062078;28;20141;-70
2023/09/19 06:25:28;;;;;;;;;;;14.90;99.90;;;;;;5049004;28;20055;-70
2023/09/19 06:27:55;;;;;;;5.65;1.05;;;14.90;99.90;;;;;;5045935;28;20308;-70
2023/09/19 06:30:25;;;;;;;4.38;0.90;;;14.90;99.90;;;;;;5041518;28;20053;-69
2023/09/19 06:33:00;;;;;;;6.88;1.20;;;14.90;99.90;;;;;;5034627;28;20037;-70
2023/09/19 06:35:26;;;;;;;7.97;1.55;;;14.90;99.90;;;;;;5041417;28;20504;-71
2023/09/19 06:37:52;;;;;;;6.80;1.00;;;14.90;99.90;;;;;;5045524;28;20043;-69
2023/09/19 06:40:19;;;;;;;9.75;1.95;;;14.90;99.90;;;;;;5045070;28;20047;-70
2023/09/19 06:42:47;;;;;;;9.10;1.92;;;14.90;99.90;;;;;;5031552;28;21026;-70
2023/09/19 06:45:17;;;;;;;5.53;1.13;;;15.00;99.90;;;;;;5046775;28;20040;-70
2023/09/19 06:47:50;;;;;;;8.00;0.98;;;15.10;99.90;;;;;;5045138;28;20137;-69
2023/09/19 06:50:23;;;;;;;5.38;0.98;;;15.10;99.90;;;;;;5066304;28;20044;-70
2023/09/19 06:52:54;;;;;;;7.30;1.08;;;15.10;99.90;;;;;;5068714;28;20047;-70
2023/09/19 06:55:24;;;;;;;6.07;1.55;;;15.20;99.90;;;;;;5046590;28;20094;-69
2023/09/19 06:57:54;;;;;;;8.18;1.10;;;15.20;99.90;;;;;;5068979;28;20044;-69
2023/09/19 07:00:21;;;;;;;4.65;1.05;;;15.30;99.90;;;;;;5040797;28;20066;-70
2023/09/19 07:03:03;;;;;;;7.30;1.55;;;15.30;99.90;;;;;;5038339;28;20055;-70
2023/09/19 07:05:33;;;;;;;6.40;1.30;;;15.30;99.90;;;;;;5046293;28;20048;-69
2023/09/19 07:08:02;;;;;;;4.32;1.02;;;15.40;99.90;;;;;;5044259;28;20051;-69
2023/09/19 07:10:28;;;;;;;18.73;1.75;;;15.40;99.90;;;;;;5041520;28;20052;-70
2023/09/19 07:13:06;;;;;;;7.00;1.95;;;15.50;99.90;;;;;;5049126;28;20048;-69
2023/09/19 07:15:46;;;;;;;9.48;1.67;;;15.60;99.90;;;;;;5035764;28;20098;-69
2023/09/19 07:18:16;;;;;;;6.78;1.60;;;15.60;99.90;;;;;;5034437;28;20036;-69
2023/09/19 07:20:48;;;;;;;8.85;1.23;;;15.70;99.90;;;;;;5044510;28;20151;-69
2023/09/19 07:23:22;;;;;;;6.28;1.42;;;15.70;99.90;;;;;;5046579;28;20421;-70
2023/09/19 07:25:48;;;;;;;10.93;1.70;;;15.80;99.90;;;;;;5047036;28;20428;-69
2023/09/19 07:28:14;;;;;;;;;;;15.80;99.90;;;;;;5063289;28;20512;-70
2023/09/19 07:30:41;;;;;;;8.25;1.35;;;15.80;99.90;;;;;;5062240;28;20110;-70
2023/09/19 07:33:11;;;;;;;7.63;1.30;;;15.90;99.90;;;;;;5049269;28;20067;-70
2023/09/19 07:35:39;;;;;;;8.95;2.08;;;15.90;99.90;;;;;;5060701;28;20033;-70
2023/09/19 07:38:06;;;;;;;8.38;1.25;;;15.90;99.90;;;;;;5046709;28;20383;-70
2023/09/19 07:40:31;;;;;;;4.38;1.05;;;16.00;99.90;;;;;;5047111;28;20044;-70
2023/09/19 07:43:01;;;;;;;5.15;1.17;;;15.90;99.90;;;;;;5049936;28;20628;-70
2023/09/19 07:45:31;;;;;;;3.17;1.05;;;16.00;99.90;;;;;;5048890;28;20040;-70
2023/09/19 07:47:57;;;;;;;5.95;1.20;;;16.00;99.90;;;;;;5047364;28;20888;-70
2023/09/19 07:50:23;;;;;;;2.13;1.00;;;16.00;99.90;;;;;;5044925;28;20040;-70
2023/09/19 07:52:53;;;;;;;7.03;1.10;;;16.00;99.90;;;;;;5028806;28;20515;-70
2023/09/19 07:55:25;;;;;;;4.53;1.15;;;16.00;99.90;;;;;;5026797;28;20056;-70
2023/09/19 07:57:54;;;;;;;6.75;1.42;;;16.00;99.90;;;;;;5029578;28;20131;-69
2023/09/19 08:00:20;;;;;;;9.27;1.48;;;16.00;99.90;;;;;;5048768;28;20040;-70
2023/09/19 08:02:47;;;;;;;9.35;2.25;;;16.00;99.90;;;;;;5043423;28;20053;-70
2023/09/19 08:05:16;;;;;;;8.02;1.70;;;16.00;99.90;;;;;;5049122;28;20064;-70
2023/09/19 08:07:50;;;;;;;4.63;1.25;;;16.00;99.90;;;;;;5063670;28;20476;-70
2023/09/19 08:10:19;;;;;;;9.38;2.22;;;16.00;99.90;;;;;;5052648;28;20047;-70
2023/09/19 08:12:46;;;;;;;6.32;2.25;;;16.00;99.90;;;;;;5064615;28;20524;-69
2023/09/19 08:15:17;;;;;;;4.70;1.17;;;15.90;99.90;;;;;;5045291;28;20041;-70
2023/09/19 08:17:43;;;;;;;6.85;1.20;;;15.90;99.90;;;;;;5030265;28;20108;-69
2023/09/19 08:20:28;;;;;;;8.75;2.30;;;15.90;99.90;;;;;;5053168;28;20044;-70
2023/09/19 08:22:56;;;;;;;7.32;1.70;;;15.90;99.90;;;;;;5048310;28;20052;-69
2023/09/19 08:25:23;;;;;;;8.00;1.48;;;15.90;99.90;;;;;;5054426;28;20047;-69
2023/09/19 08:27:49;;;;;;;10.77;1.83;;;15.90;99.90;;;;;;5046618;28;20124;-69
2023/09/19 08:30:16;;;;;;;6.32;1.30;;;15.90;99.90;;;;;;5048632;28;20036;-70
2023/09/19 08:32:45;;;;;;;6.57;1.60;;;16.10;99.90;;;;;;5040579;28;20428;-69
2023/09/19 08:35:11;;;;;;;6.28;1.77;;;16.10;99.90;;;;;;5044652;28;20074;-69
2023/09/19 08:37:37;;;;;;;9.20;1.20;;;16.10;99.90;;;;;;5046471;28;20032;-69
2023/09/19 08:40:03;;;;;;;4.03;0.93;;;16.20;99.90;;;;;;5065760;28;20058;-69
2023/09/19 08:42:29;;;;;;;5.22;1.17;;;16.20;99.90;;;;;;5042391;28;20044;-69
2023/09/19 08:45:00;;;;;;;7.32;1.60;;;16.20;99.90;;;;;;5048231;28;20158;-69
2023/09/19 08:47:43;;;;;;;7.68;1.55;;;16.30;99.90;;;;;;5049948;28;20098;-69
2023/09/19 08:50:19;;;;;;;7.55;1.70;;;16.30;99.90;;;;;;5061615;28;20508;-69
2023/09/19 08:52:46;;;;;;;11.60;1.80;;;16.40;99.90;;;;;;5045069;28;20388;-69
2023/09/19 08:55:20;;;;;;;6.65;1.77;;;16.40;99.90;;;;;;5051310;28;20124;-69
2023/09/19 08:57:49;;;;;;;6.55;1.40;;;16.50;99.90;;;;;;5043667;28;20055;-69
2023/09/19 09:00:18;;;;;;;5.97;1.40;;;16.60;99.90;;;;;;5053197;28;20083;-69
2023/09/19 09:02:44;;;;;;;6.55;1.60;;;16.60;99.90;;;;;;5047773;28;20044;-69
2023/09/19 09:05:11;;;;;;;9.80;2.03;;;16.70;99.90;;;;;;5064800;28;20041;-69
2023/09/19 09:07:40;;;;;;;5.60;1.50;;;16.70;99.90;;;;;;5067111;28;20044;-69
2023/09/19 09:10:07;;;;;;;9.35;1.65;;;16.80;99.90;;;;;;5046751;28;20496;-70
2023/09/19 09:12:36;;;;;;;6.40;1.70;;;16.80;99.90;;;;;;5046314;28;20101;-69
2023/09/19 09:15:03;;;;;;;8.88;1.38;;;16.80;99.90;;;;;;5062128;28;20041;-69
2023/09/19 09:17:29;;;;;;;4.43;1.52;;;16.80;99.90;;;;;;5048587;28;20036;-70
2023/09/19 09:19:56;;;;;;;9.57;1.40;;;16.80;99.90;;;;;;5064915;28;20135;-70
2023/09/19 09:22:21;;;;;;;9.18;2.55;;;16.90;99.90;;;;;;5063486;28;20044;-70
2023/09/19 09:24:54;;;;;;;9.40;1.33;;;16.80;99.90;;;;;;5068069;28;20044;-70
2023/09/19 09:27:20;;;;;;;7.47;1.40;;;16.80;99.90;;;;;;5052318;28;20522;-70
2023/09/19 09:29:51;;;;;;;6.75;1.50;;;16.90;99.90;;;;;;5054072;28;20197;-69
2023/09/19 09:32:28;;;;;;;14.00;1.80;;;17.00;99.90;;;;;;5046839;28;20080;-70
2023/09/19 09:34:59;;;;;;;9.18;1.60;;;17.00;99.90;;;;;;5055033;28;20105;-70
2023/09/19 09:37:28;;;;;;;7.35;1.35;;;17.00;99.90;;;;;;5049921;28;20501;-69
2023/09/19 09:42:46;;;;;;;8.80;1.70;;;17.10;99.90;;;;;;5047825;28;20143;-69
2023/09/19 09:45:12;;;;;;;8.57;1.98;;;17.10;99.90;;;;;;5051476;28;20070;-70
2023/09/19 09:47:57;;;;;;;8.57;1.58;;;17.10;99.90;;;;;;5053689;28;20539;-70
2023/09/19 09:50:55;;;;;;;10.32;1.92;;;17.20;99.90;;;;;;5049047;28;20031;-70
2023/09/19 09:53:27;;;;;;;6.88;1.45;;;17.20;99.90;;;;;;5045286;28;20442;-68
2023/09/19 09:56:09;;;;;;;7.95;2.13;;;17.10;99.90;;;;;;5055919;28;20522;-70
2023/09/19 09:58:36;;;;;;;14.00;1.90;;;17.20;99.90;;;;;;5053876;28;20048;-70
2023/09/19 10:01:08;;;;;;;7.00;1.80;;;17.20;99.90;;;;;;5059278;28;20043;-70
2023/09/19 10:03:47;;;;;;;11.23;2.15;;;17.20;99.90;;;;;;5049568;28;20036;-70
2023/09/19 10:09:04;;;;;;;12.82;1.58;;;17.20;99.90;;;;;;5051447;28;20123;-72
2023/09/19 10:11:30;;;;;;;8.63;1.70;;;17.20;99.90;;;;;;5074759;28;20405;-72
2023/09/19 10:13:57;;;;;;;8.73;2.03;;;17.30;99.90;;;;;;5059025;28;20138;-72
2023/09/19 10:16:24;;;;;;;8.82;1.63;;;17.40;99.90;;;;;;5055143;28;20067;-72
2023/09/19 10:18:54;;;;;;;13.10;1.85;;;17.50;99.90;;;;;;5052368;28;20119;-73
2023/09/19 10:21:22;;;;;;;9.50;2.13;;;17.60;99.90;;;;;;5077616;28;20048;-73
2023/09/19 10:23:51;;;;;;;11.20;2.30;;;17.70;99.90;;;;;;5052528;28;20048;-72
2023/09/19 10:26:18;;;;;;;13.38;2.10;;;17.60;99.90;;;;;;5059318;28;20156;-72
2023/09/19 10:28:49;;;;;;;9.18;1.92;;;17.70;99.90;;;;;;5060587;28;20052;-72
2023/09/19 10:31:21;;;;;;;7.30;1.95;;;17.70;99.90;;;;;;5048749;28;20271;-72
2023/09/19 10:33:49;;;;;;;12.10;1.95;;;17.70;99.90;;;;;;5056335;28;20056;-72
2023/09/19 10:36:16;;;;;;;9.13;1.95;;;17.70;99.90;;;;;;5038771;28;20480;-72
2023/09/19 10:38:45;;;;;;;13.90;2.20;;;17.60;99.90;;;;;;5079851;28;20511;-72
2023/09/19 10:41:16;;;;;;;8.75;1.67;;;17.60;99.90;;;;;;5055178;28;20048;-71
2023/09/19 10:43:46;;;;;;;9.00;2.03;;;17.60;99.90;;;;;;5076020;28;20060;-71
2023/09/19 10:46:12;;;;;;;6.35;1.63;;;17.60;99.90;;;;;;5057318;28;20036;-71
2023/09/19 10:48:39;;;;;;;;;;;17.50;99.90;;;;;;5072525;28;20133;-71
2023/09/19 10:51:28;;;;;;;15.27;2.42;;;17.50;99.90;;;;;;5061401;28;19915;-71
2023/09/19 10:54:07;;;;;;;9.82;2.22;;;17.50;99.90;;;;;;5054572;28;20054;-71
2023/09/19 10:56:37;;;;;;;7.57;2.45;;;17.40;99.90;;;;;;5034808;28;20081;-71
2023/09/19 10:59:10;;;;;;;7.25;1.95;;;17.30;99.90;;;;;;5058398;28;20040;-71
2023/09/19 11:01:51;;;;;;;7.00;2.47;;;17.30;99.90;;;;;;5059935;28;20369;-71
2023/09/19 11:04:24;;;;;;;10.35;2.08;;;17.20;99.90;;;;;;5056372;28;20040;-72
2023/09/19 11:07:15;;;;;;;9.07;1.92;;;17.30;99.90;;;;;;5043068;28;20044;-73
2023/09/19 11:09:46;;;;;;;9.23;2.58;;;17.20;99.90;;;;;;5046299;28;20102;-72
2023/09/19 11:12:28;;;;;;;7.18;1.67;;;17.20;99.90;;;;;;5056112;28;20094;-72
2023/09/19 11:14:54;;;;;;;13.52;2.55;;;17.30;99.90;;;;;;5071154;28;20139;-72
2023/09/19 11:17:21;;;;;;;11.02;2.13;;;17.30;99.90;;;;;;5070129;28;20135;-72
2023/09/19 11:20:24;;;;;;;6.18;1.50;;;17.40;99.90;;;;;;5054451;28;20060;-72
2023/09/19 11:22:58;;;;;;;10.20;1.83;;;17.50;99.90;;;;;;5052286;28;20071;-72
2023/09/19 11:25:30;;;;;;;10.07;2.00;;;17.60;99.90;;;;;;5062562;28;20040;-72
2023/09/19 11:28:18;;;;;;;9.63;1.88;;;17.70;99.90;;;;;;5054944;28;20044;-72
2023/09/19 11:30:48;;;;;;;11.95;2.05;;;17.70;99.90;;;;;;5053355;28;20037;-72
2023/09/19 11:33:20;;;;;;;11.07;1.95;;;17.70;99.90;;;;;;5056469;28;20362;-72
2023/09/19 11:36:09;;;;;;;11.73;2.17;;;17.70;99.90;;;;;;5044097;28;20071;-72
2023/09/19 11:38:44;;;;;;;9.27;1.83;;;17.80;99.90;;;;;;5046670;28;20404;-72
2023/09/19 11:41:26;;;;;;;6.07;1.60;;;17.80;99.90;;;;;;5068498;28;20118;-72
2023/09/19 11:44:00;;;;;;;7.25;1.70;;;17.80;99.90;;;;;;5066471;28;20049;-72
2023/09/19 11:46:28;;;;;;;9.75;2.10;;;17.80;99.90;;;;;;5057075;28;20518;-72
2023/09/19 11:48:54;;;;;;;8.25;2.35;;;17.70;99.90;;;;;;5052928;28;20218;-72
2023/09/19 11:51:26;;;;;;;;;;;17.70;99.90;;;;;;5055571;28;20072;-72
2023/09/19 11:53:56;;;;;;;9.65;2.00;;;17.60;99.90;;;;;;5066484;28;19977;-72
2023/09/19 11:56:25;;;;;;;10.95;2.13;;;17.60;99.90;;;;;;5051655;28;20086;-72
2023/09/19 11:58:55;;;;;;;10.88;1.70;;;17.60;99.90;;;;;;5075737;28;20412;-72
2023/09/19 12:01:24;;;;;;;7.32;1.73;;;17.60;99.90;;;;;;5054263;28;20044;-72
2023/09/19 12:03:54;;;;;;;9.35;1.48;;;17.60;99.90;;;;;;5062650;28;20055;-72
2023/09/19 12:06:21;;;;;;;8.93;2.10;;;17.60;99.90;;;;;;5079672;28;20055;-72
2023/09/19 12:08:48;;;;;;;13.70;2.03;;;17.50;99.90;;;;;;5075506;28;20040;-71
2023/09/19 12:11:20;;;;;;;7.03;2.22;;;17.50;99.90;;;;;;5040218;28;20045;-68
2023/09/19 12:13:48;;;;;;;10.00;2.03;;;17.40;99.90;;;;;;5061668;28;20032;-69
2023/09/19 12:16:21;;;;;;;6.05;1.55;;;17.30;99.90;;;;;;5046692;28;20437;-69
2023/09/19 12:18:50;;;;;;;7.75;1.33;;;17.20;99.90;;;;;;5050836;28;20040;-69
2023/09/19 12:21:27;;;;;;;5.95;1.98;;;17.10;99.90;;;;;;5028291;28;20515;-69
2023/09/19 12:23:59;;;;;;;8.43;1.70;;;17.00;99.90;;;;;;5061144;28;20063;-69
2023/09/19 12:26:28;;;;;;;9.00;1.35;;;17.00;99.90;;;;;;5048877;28;20040;-72
2023/09/19 12:28:55;;;;;;;7.68;1.83;;;17.00;99.90;;;;;;5044105;28;20459;-70
2023/09/19 12:31:22;;;;;;;9.68;1.42;;;17.10;99.90;;;;;;5044023;28;20036;-70
2023/09/19 12:33:54;;;;;;;4.63;1.05;;;17.20;99.90;;;;;;5047414;28;20048;-70
2023/09/19 12:36:25;;;;;;;8.23;1.20;;;17.20;99.90;;;;;;5046391;28;20040;-71
2023/09/19 12:38:53;;;;;;;7.25;1.45;;;17.20;99.90;;;;;;5046499;28;20037;-70
2023/09/19 12:41:21;;;;;;;3.97;1.40;;;17.30;99.90;;;;;;5031798;28;20409;-70
2023/09/19 12:43:47;;;;;;;8.13;1.50;;;17.30;99.90;;;;;;5041604;28;20468;-71
2023/09/19 12:46:13;;;;;;;4.65;1.17;;;17.30;99.90;;;;;;5064638;28;20133;-70
2023/09/19 12:48:43;;;;;;;;;;;17.30;99.90;;;;;;5045441;28;20044;-70
2023/09/19 12:51:15;;;;;;;4.68;1.17;;;17.40;99.90;;;;;;5045486;28;19916;-71
2023/09/19 12:53:48;;;;;;;5.88;1.52;;;17.30;99.90;;;;;;5031156;28;20101;-71
2023/09/19 12:56:16;;;;;;;6.95;1.85;;;17.40;99.90;;;;;;5065232;28;20036;-71
2023/09/19 12:58:49;;;;;;;6.72;1.67;;;17.40;99.90;;;;;;5050531;28;20037;-71
2023/09/19 13:01:16;;;;;;;6.97;1.42;;;17.40;99.90;;;;;;5050362;28;20098;-71
2023/09/19 13:03:42;;;;;;;2.75;1.00;;;17.40;99.90;;;;;;5052135;28;20290;-71
2023/09/19 13:06:10;;;;;;;10.45;1.50;;;17.40;99.90;;;;;;5051842;28;20731;-70